Time;durP1;ratioP1;P1;durP2;ratioP2;P2;SDS_P1;SDS_P2;PMS_P1;PMS_P2;Temp;Humidity;BMP_temperature;BMP_pressure;BME280_temperature;BME280_humidity;BME280_pressure;Samples;Min_cycle;Max_cycle;Signal;HPM_P1;HPM_P2
2023/04/30 00:02:51;;;;;;;43.00;19.48;;;;;;;;;;10376568;28;20083;-80
2023/04/30 00:07:52;;;;;;;41.03;17.27;;;;;;;;;;10372545;28;20037;-80
2023/04/30 00:12:53;;;;;;;42.25;17.17;;;;;;;;;;10362657;28;20678;-80
2023/04/30 00:17:54;;;;;;;40.95;18.70;;;;;;;;;;10365395;28;20057;-82
2023/04/30 00:22:55;;;;;;;43.45;17.65;;;;;;;;;;10366579;28;20113;-79
2023/04/30 00:27:57;;;;;;;44.15;17.35;;;;;;;;;;10388632;23;20057;-79
2023/04/30 00:32:57;;;;;;;57.75;21.55;;;;;;;;;;10399990;23;20093;-80
2023/04/30 00:37:58;;;;;;;59.25;21.33;;;;;;;;;;10361322;28;20116;-80
2023/04/30 00:42:59;;;;;;;58.85;20.83;;;;;;;;;;10361992;28;20038;-81
2023/04/30 00:48:00;;;;;;;52.70;21.90;;;;;;;;;;10353769;28;20108;-79
2023/04/30 00:53:02;;;;;;;45.60;18.17;;;;;;;;;;10360774;28;20113;-80
2023/04/30 00:58:02;;;;;;;49.58;20.40;;;;;;;;;;10361648;28;20052;-80
2023/04/30 01:03:04;;;;;;;48.75;19.73;;;;;;;;;;10355605;28;20112;-80
2023/04/30 01:08:05;;;;;;;45.92;19.05;;;;;;;;;;10360920;28;20038;-80
2023/04/30 01:13:07;;;;;;;38.40;16.65;;;;;;;;;;10345332;28;20041;-80
2023/04/30 01:18:15;;;;;;;35.20;16.02;;;;;;;;;;10353949;28;20109;-80
2023/04/30 01:23:19;;;;;;;29.02;14.07;;;;;;;;;;10345677;28;20040;-80
2023/04/30 01:28:20;;;;;;;26.65;13.52;;;;;;;;;;10361128;28;20109;-82
2023/04/30 01:33:21;;;;;;;26.05;12.48;;;;;;;;;;10355388;28;20058;-80
2023/04/30 01:38:37;;;;;;;26.98;12.57;;;;;;;;;;10368052;28;20041;-80
2023/04/30 01:43:57;;;;;;;25.25;11.63;;;;;;;;;;10367249;28;20096;-80
2023/04/30 01:49:11;;;;;;;24.83;11.45;;;;;;;;;;10358588;28;20128;-80
2023/04/30 01:54:12;;;;;;;23.27;9.48;;;;;;;;;;10358101;28;20497;-80
2023/04/30 01:59:14;;;;;;;18.00;8.93;;;;;;;;;;10355975;28;20113;-80
2023/04/30 02:04:15;;;;;;;25.13;10.50;;;;;;;;;;10352243;28;20045;-80
2023/04/30 02:09:16;;;;;;;25.67;11.95;;;;;;;;;;10368330;28;20038;-81
2023/04/30 02:14:17;;;;;;;22.20;11.30;;;;;;;;;;10364623;28;20038;-80
2023/04/30 02:19:18;;;;;;;25.27;11.52;;;;;;;;;;10360206;28;20034;-80
2023/04/30 02:24:19;;;;;;;29.27;13.25;;;;;;;;;;10365850;28;20045;-81
2023/04/30 02:29:20;;;;;;;34.03;17.08;;;;;;;;;;10366694;28;20100;-80
2023/04/30 02:34:21;;;;;;;45.58;22.35;;;;;;;;;;10362521;28;20057;-81
2023/04/30 02:39:22;;;;;;;46.45;23.73;;;;;;;;;;10366471;28;20117;-80
2023/04/30 02:44:23;;;;;;;58.40;25.83;;;;;;;;;;10363932;28;20029;-80
2023/04/30 02:49:24;;;;;;;53.67;24.43;;;;;;;;;;10358830;28;20743;-81
2023/04/30 02:54:25;;;;;;;60.20;29.77;;;;;;;;;;10365381;28;20084;-81
2023/04/30 02:59:26;;;;;;;55.43;26.33;;;;;;;;;;10342432;28;20058;-81
2023/04/30 03:04:27;;;;;;;56.17;24.93;;;;;;;;;;10359805;28;20041;-80
2023/04/30 03:09:29;;;;;;;60.73;25.50;;;;;;;;;;10358387;28;20069;-80
2023/04/30 03:14:30;;;;;;;59.33;26.23;;;;;;;;;;10361299;28;20042;-82
2023/04/30 03:19:31;;;;;;;52.43;23.43;;;;;;;;;;10352169;28;20034;-81
2023/04/30 03:24:32;;;;;;;48.57;24.90;;;;;;;;;;10363273;28;20779;-82
2023/04/30 03:29:33;;;;;;;43.73;20.97;;;;;;;;;;10362964;28;20049;-82
2023/04/30 03:34:34;;;;;;;43.30;21.50;;;;;;;;;;10360349;28;20516;-81
2023/04/30 03:39:35;;;;;;;37.93;18.60;;;;;;;;;;10362970;28;20037;-81
2023/04/30 03:44:37;;;;;;;39.57;20.50;;;;;;;;;;10363426;28;20359;-83
2023/04/30 03:49:38;;;;;;;46.57;20.00;;;;;;;;;;10363456;28;20363;-81
2023/04/30 03:54:39;;;;;;;49.37;20.77;;;;;;;;;;10342360;28;20029;-83
2023/04/30 03:59:40;;;;;;;40.57;19.37;;;;;;;;;;10362968;28;20141;-81
2023/04/30 04:04:42;;;;;;;41.30;18.50;;;;;;;;;;10361998;28;20033;-83
2023/04/30 04:09:42;;;;;;;45.77;21.90;;;;;;;;;;10349440;28;20109;-82
2023/04/30 04:14:44;;;;;;;45.07;20.80;;;;;;;;;;10360696;28;20104;-81
2023/04/30 04:19:45;;;;;;;45.23;21.47;;;;;;;;;;10358746;28;20743;-82
2023/04/30 04:24:46;;;;;;;43.70;20.50;;;;;;;;;;10362427;28;20036;-83
2023/04/30 04:29:47;;;;;;;36.47;19.13;;;;;;;;;;10356373;28;20045;-81
2023/04/30 04:34:48;;;;;;;41.77;18.23;;;;;;;;;;10359913;28;20615;-81
2023/04/30 04:39:50;;;;;;;39.10;20.47;;;;;;;;;;10343638;28;20036;-82
2023/04/30 04:44:51;;;;;;;38.40;18.23;;;;;;;;;;10360267;28;20026;-82
2023/04/30 04:49:52;;;;;;;38.63;18.10;;;;;;;;;;10351640;28;20041;-84
2023/04/30 04:54:53;;;;;;;41.13;18.60;;;;;;;;;;10362028;28;20034;-82
2023/04/30 04:59:54;;;;;;;36.27;17.27;;;;;;;;;;10340330;28;20125;-82
2023/04/30 05:04:55;;;;;;;33.67;17.17;;;;;;;;;;10361181;28;20030;-82
2023/04/30 05:09:56;;;;;;;34.23;17.07;;;;;;;;;;10365742;28;20164;-82
2023/04/30 05:14:57;;;;;;;33.90;17.70;;;;;;;;;;10352558;28;20037;-82
2023/04/30 05:19:58;;;;;;;36.03;16.50;;;;;;;;;;10347561;28;20039;-81
2023/04/30 05:24:58;;;;;;;28.87;16.33;;;;;;;;;;10370606;28;20038;-82
2023/04/30 05:30:00;;;;;;;27.97;14.93;;;;;;;;;;10345878;28;20176;-84
2023/04/30 05:35:01;;;;;;;33.70;15.30;;;;;;;;;;10360819;28;20092;-83
2023/04/30 05:40:02;;;;;;;28.87;14.53;;;;;;;;;;10364396;28;20065;-82
2023/04/30 05:45:03;;;;;;;25.97;14.43;;;;;;;;;;10363389;28;20038;-83
2023/04/30 05:50:04;;;;;;;29.77;14.40;;;;;;;;;;10362903;28;20556;-82
2023/04/30 05:55:06;;;;;;;29.00;15.17;;;;;;;;;;10358806;28;20533;-82
2023/04/30 06:00:07;;;;;;;28.77;15.67;;;;;;;;;;10368283;28;20084;-82
2023/04/30 06:05:08;;;;;;;30.43;15.10;;;;;;;;;;10354172;28;20136;-86
2023/04/30 06:10:11;;;;;;;29.67;13.97;;;;;;;;;;10351423;28;20053;-82
2023/04/30 06:15:12;;;;;;;28.33;14.43;;;;;;;;;;10364787;28;20784;-81
2023/04/30 06:20:13;;;;;;;25.70;14.90;;;;;;;;;;10357301;28;20038;-82
2023/04/30 06:25:14;;;;;;;24.13;13.27;;;;;;;;;;10366372;28;20422;-82
2023/04/30 06:30:15;;;;;;;27.80;12.77;;;;;;;;;;10374915;23;20486;-81
2023/04/30 06:35:16;;;;;;;23.03;12.40;;;;;;;;;;10366604;28;20042;-82
2023/04/30 06:40:19;;;;;;;21.90;11.87;;;;;;;;;;10354241;28;20381;-83
2023/04/30 06:45:20;;;;;;;22.23;11.50;;;;;;;;;;10362197;28;20038;-83
2023/04/30 06:50:21;;;;;;;22.73;13.00;;;;;;;;;;10356400;28;20037;-80
2023/04/30 06:55:23;;;;;;;20.95;11.20;;;;;;;;;;10367966;28;20030;-80
2023/04/30 07:00:24;;;;;;;17.98;9.93;;;;;;;;;;10375261;28;20022;-81
2023/04/30 07:05:25;;;;;;;18.47;10.23;;;;;;;;;;10357274;28;20486;-80
2023/04/30 07:10:26;;;;;;;16.67;9.10;;;;;;;;;;10376027;28;20457;-81
2023/04/30 07:15:27;;;;;;;16.30;9.70;;;;;;;;;;10363225;28;20076;-79
2023/04/30 07:20:28;;;;;;;15.30;9.48;;;;;;;;;;10363434;28;20030;-81
2023/04/30 07:25:29;;;;;;;18.33;9.30;;;;;;;;;;10361314;28;20385;-83
2023/04/30 07:30:30;;;;;;;14.77;8.57;;;;;;;;;;10355070;28;20045;-80
2023/04/30 07:35:31;;;;;;;14.68;8.73;;;;;;;;;;10361588;28;20041;-81
2023/04/30 07:40:32;;;;;;;13.20;7.53;;;;;;;;;;10345382;28;20564;-81
2023/04/30 07:45:33;;;;;;;12.27;6.50;;;;;;;;;;10352266;28;20028;-82
2023/04/30 07:50:36;;;;;;;10.15;5.88;;;;;;;;;;10363585;28;20030;-82
2023/04/30 07:55:37;;;;;;;10.18;5.70;;;;;;;;;;10363497;28;20029;-81
2023/04/30 08:00:38;;;;;;;12.25;6.03;;;;;;;;;;10356733;28;20033;-82
2023/04/30 08:05:40;;;;;;;12.40;6.22;;;;;;;;;;10360370;28;20473;-80
2023/04/30 08:10:41;;;;;;;14.25;6.20;;;;;;;;;;10362909;28;20033;-81
2023/04/30 08:15:42;;;;;;;10.15;5.47;;;;;;;;;;10362465;28;20025;-79
2023/04/30 08:20:43;;;;;;;8.10;5.47;;;;;;;;;;10362654;28;20038;-79
2023/04/30 08:25:44;;;;;;;9.73;6.10;;;;;;;;;;10363294;28;20096;-80
2023/04/30 08:30:45;;;;;;;10.85;6.82;;;;;;;;;;10361792;28;20041;-79
2023/04/30 08:35:46;;;;;;;12.88;6.70;;;;;;;;;;10329960;28;20034;-81
2023/04/30 08:40:52;;;;;;;11.80;7.18;;;;;;;;;;10365550;28;20037;-80
2023/04/30 08:45:53;;;;;;;11.18;6.65;;;;;;;;;;10366220;28;20091;-80
2023/04/30 08:50:54;;;;;;;12.77;7.28;;;;;;;;;;10368860;28;20092;-80
2023/04/30 08:55:55;;;;;;;9.05;5.45;;;;;;;;;;10371457;28;20481;-81
2023/04/30 09:00:58;;;;;;;10.82;6.72;;;;;;;;;;10369541;28;20036;-80
2023/04/30 09:05:59;;;;;;;10.85;6.13;;;;;;;;;;10381037;28;20045;-80
2023/04/30 09:11:00;;;;;;;8.75;5.88;;;;;;;;;;10374634;28;20060;-81
2023/04/30 09:16:01;;;;;;;7.72;5.72;;;;;;;;;;10376191;28;20716;-80
2023/04/30 09:21:03;;;;;;;6.55;5.43;;;;;;;;;;10368375;28;20104;-80
2023/04/30 09:26:04;;;;;;;7.10;4.50;;;;;;;;;;10360533;28;20061;-80
2023/04/30 09:31:18;;;;;;;7.88;5.20;;;;;;;;;;10360062;28;20037;-81
2023/04/30 09:36:19;;;;;;;6.80;4.88;;;;;;;;;;10372101;28;20060;-80
2023/04/30 09:41:27;;;;;;;9.10;5.03;;;;;;;;;;10372422;28;20785;-79
2023/04/30 09:46:37;;;;;;;7.22;4.40;;;;;;;;;;10364649;28;20401;-80
2023/04/30 09:51:53;;;;;;;5.53;4.22;;;;;;;;;;10366195;28;20038;-80
2023/04/30 09:56:56;;;;;;;7.57;4.13;;;;;;;;;;10391147;28;20432;-80
2023/04/30 10:02:01;;;;;;;7.00;4.20;;;;;;;;;;10351093;28;20069;-81
2023/04/30 10:07:08;;;;;;;5.00;3.67;;;;;;;;;;10377607;28;20037;-81
2023/04/30 10:12:20;;;;;;;6.93;3.53;;;;;;;;;;10369080;28;20105;-81
2023/04/30 10:17:23;;;;;;;6.88;3.70;;;;;;;;;;10366199;28;20511;-80
2023/04/30 10:22:26;;;;;;;6.88;3.95;;;;;;;;;;10366166;28;20119;-79
2023/04/30 10:27:28;;;;;;;7.63;3.45;;;;;;;;;;10372007;28;20549;-80
2023/04/30 10:32:34;;;;;;;7.55;3.88;;;;;;;;;;10372983;28;20042;-81
2023/04/30 10:37:38;;;;;;;7.22;3.63;;;;;;;;;;10373065;28;20037;-81
2023/04/30 10:42:45;;;;;;;5.00;3.58;;;;;;;;;;10375926;28;20034;-81
2023/04/30 10:47:46;;;;;;;10.00;4.05;;;;;;;;;;10378590;28;20057;-80
2023/04/30 10:52:47;;;;;;;12.27;3.83;;;;;;;;;;10376366;28;20479;-80
2023/04/30 10:57:50;;;;;;;9.02;3.97;;;;;;;;;;10372534;28;20034;-82
2023/04/30 11:02:56;;;;;;;5.55;3.10;;;;;;;;;;10381876;28;20029;-80
2023/04/30 11:07:57;;;;;;;4.07;2.92;;;;;;;;;;10362291;28;20561;-80
2023/04/30 11:13:02;;;;;;;6.30;3.38;;;;;;;;;;10372294;28;20099;-79
2023/04/30 11:18:03;;;;;;;4.20;3.07;;;;;;;;;;10369444;28;20029;-80
2023/04/30 11:23:08;;;;;;;7.18;3.15;;;;;;;;;;10375842;28;20684;-80
2023/04/30 11:28:27;;;;;;;5.50;3.20;;;;;;;;;;10365541;28;20045;-82
2023/04/30 11:33:30;;;;;;;5.68;3.22;;;;;;;;;;10361138;28;20026;-82
2023/04/30 11:38:37;;;;;;;5.07;3.20;;;;;;;;;;10360294;28;20022;-80
2023/04/30 11:43:39;;;;;;;6.65;2.90;;;;;;;;;;10365748;28;20409;-82
2023/04/30 11:48:41;;;;;;;6.13;3.30;;;;;;;;;;10374932;28;20029;-82
2023/04/30 11:53:42;;;;;;;6.45;3.25;;;;;;;;;;10374626;28;20030;-81
2023/04/30 11:58:45;;;;;;;4.72;2.47;;;;;;;;;;10370758;28;20029;-83
2023/04/30 12:03:47;;;;;;;6.68;3.15;;;;;;;;;;10361723;28;20112;-80
2023/04/30 12:08:48;;;;;;;6.70;3.22;;;;;;;;;;10379939;28;20045;-80
2023/04/30 12:13:50;;;;;;;5.78;2.90;;;;;;;;;;10363459;28;20525;-79
2023/04/30 12:18:51;;;;;;;6.35;3.20;;;;;;;;;;10366309;28;20493;-78
2023/04/30 12:23:52;;;;;;;9.45;3.20;;;;;;;;;;10373309;28;20041;-79
2023/04/30 12:28:57;;;;;;;4.72;2.90;;;;;;;;;;10375075;28;20401;-80
2023/04/30 12:34:03;;;;;;;4.47;3.22;;;;;;;;;;10352074;28;20035;-79
2023/04/30 12:39:09;;;;;;;7.45;3.05;;;;;;;;;;10426085;22;20136;-81
2023/04/30 12:44:17;;;;;;;5.03;3.30;;;;;;;;;;10399581;28;20097;-80
2023/04/30 12:49:22;;;;;;;5.47;3.33;;;;;;;;;;10404459;28;20045;-80
2023/04/30 12:54:23;;;;;;;;;;;;;;;;;;10412041;28;20036;-81
2023/04/30 12:59:24;;;;;;;4.80;2.88;;;;;;;;;;10410372;28;19916;-80
2023/04/30 13:04:25;;;;;;;6.55;3.03;;;;;;;;;;10404663;28;20025;-81
2023/04/30 13:09:26;;;;;;;7.63;3.30;;;;;;;;;;10403830;28;20132;-79
2023/04/30 13:14:27;;;;;;;5.55;3.45;;;;;;;;;;10405917;28;20026;-81
2023/04/30 13:19:29;;;;;;;6.13;3.20;;;;;;;;;;10411532;28;20613;-79
2023/04/30 13:24:30;;;;;;;5.22;2.83;;;;;;;;;;10407828;28;20496;-81
2023/04/30 13:29:31;;;;;;;7.90;3.13;;;;;;;;;;10387943;28;20069;-81
2023/04/30 13:34:32;;;;;;;4.72;3.08;;;;;;;;;;10380191;28;20032;-80
2023/04/30 13:39:33;;;;;;;6.03;2.83;;;;;;;;;;10384247;28;20040;-82
2023/04/30 13:44:35;;;;;;;8.38;3.35;;;;;;;;;;10379265;28;20028;-80
2023/04/30 13:49:36;;;;;;;5.18;3.30;;;;;;;;;;10376329;28;20050;-80
2023/04/30 13:54:37;;;;;;;6.55;3.38;;;;;;;;;;10357728;28;20026;-80
2023/04/30 13:59:38;;;;;;;3.35;2.47;;;;;;;;;;10342708;28;20464;-80
2023/04/30 14:04:39;;;;;;;5.20;2.63;;;;;;;;;;10350711;28;20030;-80
2023/04/30 14:09:40;;;;;;;5.50;2.92;;;;;;;;;;10352424;28;20349;-80
2023/04/30 14:14:41;;;;;;;5.50;2.50;;;;;;;;;;10344126;28;20548;-80
2023/04/30 14:19:42;;;;;;;5.43;2.47;;;;;;;;;;10365577;28;20061;-80
2023/04/30 14:24:43;;;;;;;4.45;2.75;;;;;;;;;;10378678;28;20038;-80
2023/04/30 14:29:48;;;;;;;5.43;2.60;;;;;;;;;;10366490;28;20124;-79
2023/04/30 14:34:51;;;;;;;4.88;2.80;;;;;;;;;;10375650;28;20058;-84
2023/04/30 14:39:53;;;;;;;4.63;2.60;;;;;;;;;;10361768;28;20084;-81
2023/04/30 14:44:55;;;;;;;5.45;2.67;;;;;;;;;;10365232;28;20504;-81
2023/04/30 14:49:57;;;;;;;4.32;2.40;;;;;;;;;;10367174;28;20057;-80
2023/04/30 14:54:58;;;;;;;5.53;2.47;;;;;;;;;;10359453;28;20504;-81
2023/04/30 14:59:59;;;;;;;5.68;2.33;;;;;;;;;;10373180;28;20076;-81
2023/04/30 15:05:01;;;;;;;6.32;2.53;;;;;;;;;;10379231;28;20482;-81
2023/04/30 15:10:02;;;;;;;5.85;3.22;;;;;;;;;;10364976;28;20033;-81
2023/04/30 15:15:05;;;;;;;6.18;2.70;;;;;;;;;;10361064;28;20908;-81
2023/04/30 15:20:07;;;;;;;8.50;2.60;;;;;;;;;;10363666;28;20046;-81
2023/04/30 15:25:09;;;;;;;4.70;2.55;;;;;;;;;;10369810;28;20030;-82
2023/04/30 15:30:10;;;;;;;6.90;2.88;;;;;;;;;;10377304;28;20034;-80
2023/04/30 15:35:11;;;;;;;8.13;2.78;;;;;;;;;;10364122;28;20065;-80
2023/04/30 15:40:14;;;;;;;6.32;2.55;;;;;;;;;;10364341;28;20029;-82
2023/04/30 15:45:15;;;;;;;4.93;2.35;;;;;;;;;;10363838;28;20124;-81
2023/04/30 15:50:16;;;;;;;5.38;2.42;;;;;;;;;;10362705;28;20131;-80
2023/04/30 15:55:17;;;;;;;6.88;2.40;;;;;;;;;;10363134;28;20042;-80
2023/04/30 16:00:18;;;;;;;4.65;2.15;;;;;;;;;;10368936;28;20783;-81
2023/04/30 16:05:19;;;;;;;7.53;2.38;;;;;;;;;;10350404;28;20087;-80
2023/04/30 16:10:20;;;;;;;3.80;2.38;;;;;;;;;;10362048;28;20433;-81
2023/04/30 16:15:24;;;;;;;4.97;2.35;;;;;;;;;;10365083;28;20065;-81
2023/04/30 16:20:26;;;;;;;4.47;2.40;;;;;;;;;;10367507;28;20053;-81
2023/04/30 16:25:27;;;;;;;5.32;2.60;;;;;;;;;;10363097;28;20042;-81
2023/04/30 16:30:29;;;;;;;5.68;2.20;;;;;;;;;;10366759;28;20123;-81
2023/04/30 16:35:31;;;;;;;4.78;2.38;;;;;;;;;;10368549;28;20057;-82
2023/04/30 16:40:33;;;;;;;3.22;2.20;;;;;;;;;;10365998;28;20014;-82
2023/04/30 16:45:34;;;;;;;6.18;3.35;;;;;;;;;;10366163;28;20025;-81
2023/04/30 16:50:35;;;;;;;4.65;2.30;;;;;;;;;;10361635;28;20088;-81
2023/04/30 16:55:36;;;;;;;3.65;1.83;;;;;;;;;;10374310;28;20029;-81
2023/04/30 17:00:37;;;;;;;5.22;2.47;;;;;;;;;;10355619;28;20513;-81
2023/04/30 17:05:38;;;;;;;4.43;2.20;;;;;;;;;;10354274;28;20050;-81
2023/04/30 17:10:39;;;;;;;3.17;2.17;;;;;;;;;;10366469;28;20132;-81
2023/04/30 17:15:41;;;;;;;5.47;3.05;;;;;;;;;;10367270;28;20053;-81
2023/04/30 17:20:44;;;;;;;6.15;3.05;;;;;;;;;;10365714;28;20029;-81
2023/04/30 17:25:45;;;;;;;7.68;2.80;;;;;;;;;;10363280;28;20436;-81
2023/04/30 17:30:46;;;;;;;6.05;2.30;;;;;;;;;;10373462;28;20042;-81
2023/04/30 17:35:47;;;;;;;6.60;2.33;;;;;;;;;;10350043;28;20054;-80
2023/04/30 17:40:48;;;;;;;6.75;2.80;;;;;;;;;;10360774;28;20553;-81
2023/04/30 17:45:52;;;;;;;3.85;2.38;;;;;;;;;;10368254;28;20028;-82
2023/04/30 17:50:53;;;;;;;8.80;3.15;;;;;;;;;;10339534;28;20073;-82
2023/04/30 17:55:54;;;;;;;6.28;2.90;;;;;;;;;;10385275;28;20040;-82
2023/04/30 18:00:57;;;;;;;9.77;4.10;;;;;;;;;;10365756;28;20373;-82
2023/04/30 18:05:58;;;;;;;6.65;3.67;;;;;;;;;;10365888;28;20034;-80
2023/04/30 18:11:02;;;;;;;11.98;4.40;;;;;;;;;;10371995;28;20401;-83
2023/04/30 18:16:03;;;;;;;10.50;4.88;;;;;;;;;;10370399;28;20030;-81
2023/04/30 18:21:04;;;;;;;6.72;3.40;;;;;;;;;;10368655;28;20528;-81
2023/04/30 18:26:06;;;;;;;4.80;3.30;;;;;;;;;;10380777;28;20037;-81
2023/04/30 18:31:07;;;;;;;8.33;3.80;;;;;;;;;;10386228;28;20041;-80
2023/04/30 18:36:08;;;;;;;6.97;3.20;;;;;;;;;;10379739;28;20049;-80
2023/04/30 18:41:09;;;;;;;8.77;4.50;;;;;;;;;;10384637;28;20033;-81
2023/04/30 18:46:10;;;;;;;11.47;5.70;;;;;;;;;;10372657;28;20033;-81
2023/04/30 18:51:10;;;;;;;8.90;4.20;;;;;;;;;;10378447;28;20111;-81
2023/04/30 18:56:11;;;;;;;9.87;4.10;;;;;;;;;;10376500;28;20034;-81
2023/04/30 19:01:13;;;;;;;10.33;4.10;;;;;;;;;;10369375;28;20013;-81
2023/04/30 19:06:14;;;;;;;13.60;5.53;;;;;;;;;;10364873;28;20053;-81
2023/04/30 19:11:15;;;;;;;9.83;4.47;;;;;;;;;;10365989;28;20136;-82
2023/04/30 19:16:17;;;;;;;10.47;4.83;;;;;;;;;;10364656;28;20742;-80
2023/04/30 19:21:18;;;;;;;12.33;5.13;;;;;;;;;;10373512;28;20103;-81
2023/04/30 19:26:21;;;;;;;9.80;4.40;;;;;;;;;;10377376;28;20669;-82
2023/04/30 19:31:22;;;;;;;15.90;4.90;;;;;;;;;;10378705;28;20860;-81
2023/04/30 19:36:23;;;;;;;15.50;7.47;;;;;;;;;;10368254;28;20094;-82
2023/04/30 19:41:24;;;;;;;19.03;7.73;;;;;;;;;;10380249;28;20136;-81
2023/04/30 19:46:26;;;;;;;16.60;6.97;;;;;;;;;;10367882;28;20040;-80
2023/04/30 19:51:27;;;;;;;14.30;7.50;;;;;;;;;;10373417;28;20408;-81
2023/04/30 19:56:28;;;;;;;21.57;7.57;;;;;;;;;;10382789;28;20084;-81
2023/04/30 20:01:29;;;;;;;21.10;7.90;;;;;;;;;;10382359;28;20061;-81
2023/04/30 20:06:30;;;;;;;15.67;6.57;;;;;;;;;;10369220;28;20033;-81
2023/04/30 20:11:31;;;;;;;17.57;5.83;;;;;;;;;;10375621;28;20072;-81
2023/04/30 20:16:32;;;;;;;15.30;5.83;;;;;;;;;;10380704;28;20026;-82
2023/04/30 20:21:33;;;;;;;14.50;7.20;;;;;;;;;;10373583;28;20029;-81
2023/04/30 20:26:35;;;;;;;15.43;6.87;;;;;;;;;;10379744;28;20029;-80
2023/04/30 20:31:36;;;;;;;14.93;6.27;;;;;;;;;;10382816;28;20045;-80
2023/04/30 20:36:39;;;;;;;14.17;6.47;;;;;;;;;;10372865;28;20073;-80
2023/04/30 20:41:40;;;;;;;16.07;6.40;;;;;;;;;;10380038;28;20333;-80
2023/04/30 20:46:42;;;;;;;13.83;5.80;;;;;;;;;;10382642;28;20080;-82
2023/04/30 20:51:43;;;;;;;10.33;5.80;;;;;;;;;;10377184;28;20076;-82
2023/04/30 20:56:45;;;;;;;12.03;5.23;;;;;;;;;;10378128;28;20038;-81
2023/04/30 21:01:47;;;;;;;12.07;5.50;;;;;;;;;;10381664;23;20061;-80
2023/04/30 21:06:48;;;;;;;10.73;5.37;;;;;;;;;;10361356;28;20026;-81
2023/04/30 21:11:52;;;;;;;13.60;5.70;;;;;;;;;;10359486;28;20394;-81
2023/04/30 21:16:53;;;;;;;16.50;6.77;;;;;;;;;;10360180;28;20129;-81
2023/04/30 21:21:54;;;;;;;14.93;7.00;;;;;;;;;;10360941;28;20040;-81
2023/04/30 21:26:55;;;;;;;16.87;6.87;;;;;;;;;;10360198;28;20030;-81
2023/04/30 21:31:56;;;;;;;18.03;7.60;;;;;;;;;;10295918;28;20443;-81
2023/04/30 21:36:57;;;;;;;17.07;8.43;;;;;;;;;;10300190;28;20038;-82
2023/04/30 21:41:58;;;;;;;25.10;9.63;;;;;;;;;;10282207;28;20037;-82
2023/04/30 21:46:59;;;;;;;26.17;9.47;;;;;;;;;;10309473;28;20096;-82
2023/04/30 21:52:00;;;;;;;32.63;12.13;;;;;;;;;;10297184;28;20038;-80
2023/04/30 21:57:02;;;;;;;26.27;10.77;;;;;;;;;;10309641;28;20100;-81
2023/04/30 22:02:04;;;;;;;23.23;8.50;;;;;;;;;;10310466;28;20062;-81
2023/04/30 22:07:05;;;;;;;19.87;8.77;;;;;;;;;;10332750;28;20031;-82
2023/04/30 22:12:08;;;;;;;20.67;9.73;;;;;;;;;;10315879;28;20431;-81
2023/04/30 22:17:08;;;;;;;20.13;9.37;;;;;;;;;;10331541;28;20394;-81
2023/04/30 22:22:10;;;;;;;20.60;10.27;;;;;;;;;;10327812;28;20034;-81
2023/04/30 22:27:13;;;;;;;25.87;11.60;;;;;;;;;;10327649;28;20501;-81
2023/04/30 22:32:14;;;;;;;19.97;9.80;;;;;;;;;;10326907;28;20033;-81
2023/04/30 22:37:15;;;;;;;26.20;8.97;;;;;;;;;;10317855;28;20038;-82
2023/04/30 22:42:16;;;;;;;23.57;8.97;;;;;;;;;;10328127;28;21120;-81
2023/04/30 22:47:18;;;;;;;16.40;7.80;;;;;;;;;;10332803;28;20026;-81
2023/04/30 22:52:19;;;;;;;19.23;7.53;;;;;;;;;;10325843;28;20482;-82
2023/04/30 22:57:21;;;;;;;14.60;6.63;;;;;;;;;;10338195;28;20105;-81
2023/04/30 23:02:22;;;;;;;15.43;6.60;;;;;;;;;;10322472;28;20100;-82
2023/04/30 23:07:23;;;;;;;11.10;6.03;;;;;;;;;;10313927;28;20031;-81
2023/04/30 23:12:24;;;;;;;14.70;6.60;;;;;;;;;;10322080;28;20085;-81
2023/04/30 23:17:25;;;;;;;17.23;6.97;;;;;;;;;;10329941;28;20038;-81
2023/04/30 23:22:26;;;;;;;14.93;7.50;;;;;;;;;;10324392;28;20039;-81
2023/04/30 23:27:28;;;;;;;17.87;7.90;;;;;;;;;;10325513;28;20116;-81
2023/04/30 23:32:30;;;;;;;20.40;8.47;;;;;;;;;;10332763;28;20671;-81
2023/04/30 23:37:32;;;;;;;20.33;10.20;;;;;;;;;;10325542;28;20494;-81
2023/04/30 23:42:33;;;;;;;19.67;9.00;;;;;;;;;;10324784;28;20038;-81
2023/04/30 23:47:35;;;;;;;20.77;9.50;;;;;;;;;;10326171;28;20027;-81
2023/04/30 23:52:38;;;;;;;21.57;9.20;;;;;;;;;;10323469;28;20030;-82
2023/04/30 23:57:39;;;;;;;20.87;8.53;;;;;;;;;;10330488;28;20038;-81
